< < Back
Terminal Aerodrome Forecast


Current Version              Previous Versions:   1  2  3  4  5  6  7  8  9  

Terminal Aerodrome Forecast

901
FTUS44 KOHX 021120
TAFCSV
TAF
KCSV 021120Z 0212/0312 VRB03KT P6SM FEW200
     FM031000 15004KT P6SM FEW200=

Latest METAR

088
SAUS70 KWBC 031000 RRA
MTRCSV
METAR KCSV 030953Z AUTO 00000KT 10SM CLR 16/14 A2999 RMK AO2 SLP134
T01610144


USA.gov is the U.S. government's official web portal to all federal, state and local government web resources and services.